Time;durP1;ratioP1;P1;durP2;ratioP2;P2;SDS_P1;SDS_P2;PMS_P1;PMS_P2;Temp;Humidity;BMP_temperature;BMP_pressure;BME280_temperature;BME280_humidity;BME280_pressure;Samples;Min_cycle;Max_cycle;Signal;HPM_P1;HPM_P2
2021/09/05 00:01:04;;;;;;;4.65;2.90;;;;;;;;;;5051522;28;20536;-83
2021/09/05 00:03:29;;;;;;;7.93;2.72;;;;;;;;;;5049765;28;20064;-84
2021/09/05 00:05:54;;;;;;;4.35;2.40;;;;;;;;;;5051169;28;20025;-84
2021/09/05 00:08:19;;;;;;;5.23;2.50;;;;;;;;;;5049916;28;20116;-84
2021/09/05 00:10:44;;;;;;;6.63;3.07;;;;;;;;;;5050151;28;20032;-84
2021/09/05 00:13:10;;;;;;;8.27;2.95;;;;;;;;;;5049811;28;20337;-83
2021/09/05 00:15:35;;;;;;;5.97;2.80;;;;;;;;;;5051329;28;20028;-84
2021/09/05 00:18:00;;;;;;;5.43;2.60;;;;;;;;;;5050447;28;20057;-84
2021/09/05 00:20:25;;;;;;;7.13;3.00;;;;;;;;;;5051171;28;20252;-84
2021/09/05 00:22:51;;;;;;;7.53;2.63;;;;;;;;;;5050758;28;20079;-84
2021/09/05 00:25:16;;;;;;;7.97;2.63;;;;;;;;;;5050667;28;20076;-84
2021/09/05 00:27:41;;;;;;;10.05;2.78;;;;;;;;;;5050467;28;20064;-84
2021/09/05 00:30:07;;;;;;;7.43;2.83;;;;;;;;;;5050579;28;20031;-84
2021/09/05 00:32:33;;;;;;;3.90;2.47;;;;;;;;;;5051589;28;20112;-84
2021/09/05 00:34:58;;;;;;;8.48;3.20;;;;;;;;;;5053568;28;20082;-84
2021/09/05 00:37:23;;;;;;;6.15;2.45;;;;;;;;;;5050700;28;20021;-84
2021/09/05 00:39:48;;;;;;;6.50;3.53;;;;;;;;;;5049963;28;20017;-84
2021/09/05 00:42:21;;;;;;;4.37;2.53;;;;;;;;;;5049519;28;20627;-84
2021/09/05 00:44:46;;;;;;;6.00;2.70;;;;;;;;;;5048824;28;20260;-84
2021/09/05 00:47:11;;;;;;;5.37;2.60;;;;;;;;;;5049243;28;20388;-84
2021/09/05 00:49:36;;;;;;;9.53;3.00;;;;;;;;;;5050666;28;20771;-84
2021/09/05 00:52:02;;;;;;;8.10;2.53;;;;;;;;;;5048819;28;20294;-84
2021/09/05 00:54:27;;;;;;;9.40;3.10;;;;;;;;;;5050254;28;20044;-84
2021/09/05 00:56:52;;;;;;;5.97;3.17;;;;;;;;;;5050012;28;20727;-84
2021/09/05 00:59:19;;;;;;;5.67;2.70;;;;;;;;;;5050071;28;20825;-84
2021/09/05 01:01:44;;;;;;;6.55;3.05;;;;;;;;;;5050175;28;20476;-84
2021/09/05 01:04:09;;;;;;;6.60;2.78;;;;;;;;;;5050924;28;20028;-84
2021/09/05 01:06:35;;;;;;;4.97;2.88;;;;;;;;;;5051025;28;20056;-84
2021/09/05 01:09:01;;;;;;;5.70;3.00;;;;;;;;;;5050663;28;20060;-84
2021/09/05 01:11:26;;;;;;;5.40;3.10;;;;;;;;;;5049119;28;20082;-84
2021/09/05 01:13:52;;;;;;;8.30;2.97;;;;;;;;;;5048994;28;20024;-84
2021/09/05 01:16:26;;;;;;;6.82;2.85;;;;;;;;;;5049761;28;20049;-84
2021/09/05 01:18:52;;;;;;;7.97;3.25;;;;;;;;;;5048807;28;20031;-84
2021/09/05 01:21:17;;;;;;;6.85;3.53;;;;;;;;;;5050006;28;20764;-84
2021/09/05 01:23:42;;;;;;;3.70;2.67;;;;;;;;;;5049968;28;20033;-84
2021/09/05 01:26:08;;;;;;;7.70;2.70;;;;;;;;;;5048667;28;20037;-84
2021/09/05 01:28:33;;;;;;;5.55;3.38;;;;;;;;;;5048640;28;20044;-84
2021/09/05 01:30:58;;;;;;;4.70;2.67;;;;;;;;;;5054174;28;20082;-84
2021/09/05 01:33:23;;;;;;;5.53;2.73;;;;;;;;;;5054652;28;20079;-84
2021/09/05 01:35:48;;;;;;;7.37;2.87;;;;;;;;;;5054600;28;20476;-84
2021/09/05 01:38:14;;;;;;;7.27;2.80;;;;;;;;;;5053081;28;20031;-84
2021/09/05 01:40:39;;;;;;;5.03;2.95;;;;;;;;;;5052443;28;20332;-84
2021/09/05 01:43:04;;;;;;;11.30;2.63;;;;;;;;;;5052520;28;20148;-84
2021/09/05 01:45:29;;;;;;;8.10;2.97;;;;;;;;;;5053626;28;20795;-84
2021/09/05 01:47:54;;;;;;;4.38;2.67;;;;;;;;;;5051847;28;20052;-83
2021/09/05 01:50:20;;;;;;;3.33;2.33;;;;;;;;;;5051910;28;20119;-84
2021/09/05 01:52:45;;;;;;;7.17;2.50;;;;;;;;;;5052050;28;20044;-84
2021/09/05 01:55:11;;;;;;;2.67;2.30;;;;;;;;;;5055368;28;20032;-84
2021/09/05 01:57:36;;;;;;;5.32;2.47;;;;;;;;;;5053011;28;20028;-84
2021/09/05 02:00:02;;;;;;;5.18;2.70;;;;;;;;;;5053724;28;20024;-83
2021/09/05 02:02:27;;;;;;;5.55;2.50;;;;;;;;;;5052375;28;20025;-84
2021/09/05 02:04:52;;;;;;;3.77;2.50;;;;;;;;;;5053607;28;20021;-84
2021/09/05 02:07:19;;;;;;;5.38;2.67;;;;;;;;;;5054077;28;20282;-84
2021/09/05 02:09:44;;;;;;;3.17;2.42;;;;;;;;;;5053125;28;20079;-84
2021/09/05 02:12:09;;;;;;;4.90;2.17;;;;;;;;;;5053249;28;20059;-84
2021/09/05 02:14:34;;;;;;;4.95;2.30;;;;;;;;;;5053383;28;20316;-84
2021/09/05 02:16:59;;;;;;;3.00;2.30;;;;;;;;;;5053078;28;20122;-84
2021/09/05 02:19:26;;;;;;;6.57;2.77;;;;;;;;;;5054587;28;20392;-84
2021/09/05 02:21:51;;;;;;;6.97;2.47;;;;;;;;;;5054215;28;20268;-84
2021/09/05 02:24:16;;;;;;;3.37;2.43;;;;;;;;;;5054231;28;20055;-84
2021/09/05 02:26:42;;;;;;;5.70;2.53;;;;;;;;;;5053121;28;20259;-84
2021/09/05 02:29:07;;;;;;;7.40;2.10;;;;;;;;;;5053273;28;20255;-84
2021/09/05 02:31:32;;;;;;;5.88;2.47;;;;;;;;;;5051407;28;20267;-84
2021/09/05 02:33:57;;;;;;;3.40;2.13;;;;;;;;;;5052462;28;20025;-84
2021/09/05 02:36:25;;;;;;;4.43;2.70;;;;;;;;;;5052456;28;20338;-84
2021/09/05 02:38:50;;;;;;;5.40;2.50;;;;;;;;;;5052607;28;20259;-84
2021/09/05 02:41:15;;;;;;;6.37;3.07;;;;;;;;;;5052683;28;20090;-84
2021/09/05 02:43:41;;;;;;;5.20;2.60;;;;;;;;;;5051210;28;20271;-84
2021/09/05 02:46:06;;;;;;;7.55;2.92;;;;;;;;;;5052357;28;20264;-84
2021/09/05 02:48:31;;;;;;;4.87;2.30;;;;;;;;;;5052820;28;20021;-84
2021/09/05 02:50:57;;;;;;;4.90;2.67;;;;;;;;;;5053023;28;20308;-84
2021/09/05 02:53:22;;;;;;;3.90;2.77;;;;;;;;;;5052637;28;20029;-84
2021/09/05 02:55:47;;;;;;;4.23;2.40;;;;;;;;;;5052804;28;20302;-84
2021/09/05 02:58:12;;;;;;;8.33;3.10;;;;;;;;;;5050699;28;20021;-84
2021/09/05 03:00:37;;;;;;;2.47;1.90;;;;;;;;;;5050716;28;20264;-84
2021/09/05 03:03:02;;;;;;;4.67;2.47;;;;;;;;;;5051890;28;20267;-84
2021/09/05 03:05:28;;;;;;;5.77;2.27;;;;;;;;;;5051626;28;20758;-84
2021/09/05 03:07:53;;;;;;;6.23;2.63;;;;;;;;;;5050681;28;20109;-84
2021/09/05 03:10:18;;;;;;;6.97;3.00;;;;;;;;;;5054605;28;20686;-84
2021/09/05 03:12:43;;;;;;;5.13;2.50;;;;;;;;;;5051649;28;20290;-84
2021/09/05 03:15:09;;;;;;;6.32;2.40;;;;;;;;;;5052704;28;20338;-84
2021/09/05 03:17:34;;;;;;;5.60;2.58;;;;;;;;;;5050308;28;20049;-84
2021/09/05 03:19:59;;;;;;;3.80;2.78;;;;;;;;;;5050316;28;20053;-84
2021/09/05 03:22:24;;;;;;;4.60;2.35;;;;;;;;;;5050211;28;20032;-84
2021/09/05 03:24:50;;;;;;;12.00;3.10;;;;;;;;;;5050106;28;20031;-84
2021/09/05 03:27:15;;;;;;;4.63;2.40;;;;;;;;;;5050077;28;20258;-84
2021/09/05 03:29:40;;;;;;;5.20;2.67;;;;;;;;;;5051173;28;20542;-84
2021/09/05 03:32:05;;;;;;;4.43;2.22;;;;;;;;;;5051148;28;20017;-84
2021/09/05 03:34:31;;;;;;;6.75;2.42;;;;;;;;;;5052155;28;20055;-84
2021/09/05 03:36:56;;;;;;;6.17;2.90;;;;;;;;;;5050859;28;20028;-84
2021/09/05 03:39:21;;;;;;;8.03;2.70;;;;;;;;;;5052288;28;20251;-84
2021/09/05 03:41:46;;;;;;;6.07;3.03;;;;;;;;;;5052852;28;20264;-84
2021/09/05 03:44:11;;;;;;;6.95;2.42;;;;;;;;;;5050586;28;20116;-84
2021/09/05 03:46:37;;;;;;;3.90;2.80;;;;;;;;;;5051717;28;20040;-84
2021/09/05 03:49:02;;;;;;;3.80;2.30;;;;;;;;;;5051508;28;20271;-84
2021/09/05 03:51:27;;;;;;;6.60;2.45;;;;;;;;;;5051219;28;20256;-84
2021/09/05 03:53:52;;;;;;;5.53;2.80;;;;;;;;;;5049333;28;20021;-84
2021/09/05 03:56:18;;;;;;;4.03;2.57;;;;;;;;;;5051226;28;20616;-84
2021/09/05 03:58:43;;;;;;;6.45;2.95;;;;;;;;;;5051105;28;20060;-84
2021/09/05 04:01:08;;;;;;;3.55;2.10;;;;;;;;;;5050664;28;20048;-84
2021/09/05 04:03:33;;;;;;;5.23;2.90;;;;;;;;;;5051828;28;20033;-84
2021/09/05 04:05:59;;;;;;;4.67;2.43;;;;;;;;;;5050079;28;20759;-84
2021/09/05 04:08:44;;;;;;;6.63;2.95;;;;;;;;;;5051006;28;20040;-84
2021/09/05 04:11:10;;;;;;;5.43;2.60;;;;;;;;;;5051497;28;20098;-84
2021/09/05 04:13:35;;;;;;;5.00;2.93;;;;;;;;;;5050242;28;20028;-84
2021/09/05 04:16:00;;;;;;;7.10;3.10;;;;;;;;;;5050792;28;20020;-84
2021/09/05 04:18:25;;;;;;;6.13;2.60;;;;;;;;;;5049332;28;20028;-83
2021/09/05 04:20:51;;;;;;;6.97;2.73;;;;;;;;;;5049095;28;20994;-84
2021/09/05 04:23:16;;;;;;;8.07;3.40;;;;;;;;;;5050760;28;20321;-84
2021/09/05 04:25:41;;;;;;;4.83;3.07;;;;;;;;;;5050619;28;20532;-84
2021/09/05 04:28:06;;;;;;;5.00;3.25;;;;;;;;;;5052203;28;20255;-84
2021/09/05 04:30:31;;;;;;;4.72;2.60;;;;;;;;;;5051639;28;20036;-84
2021/09/05 04:32:57;;;;;;;5.87;2.67;;;;;;;;;;5051363;28;20025;-83
2021/09/05 04:35:22;;;;;;;5.60;2.57;;;;;;;;;;5050773;28;20066;-84
2021/09/05 04:37:47;;;;;;;9.10;3.57;;;;;;;;;;5049394;28;20825;-84
2021/09/05 04:40:13;;;;;;;5.20;2.43;;;;;;;;;;5051630;28;20258;-84
2021/09/05 04:42:38;;;;;;;5.82;2.38;;;;;;;;;;5051333;28;20255;-84
2021/09/05 04:45:04;;;;;;;7.57;2.58;;;;;;;;;;5049528;28;20036;-84
2021/09/05 04:47:29;;;;;;;7.20;2.83;;;;;;;;;;5050881;28;20048;-84
2021/09/05 04:49:54;;;;;;;6.27;2.50;;;;;;;;;;5050398;28;20435;-84
2021/09/05 04:52:19;;;;;;;4.93;2.38;;;;;;;;;;5050281;28;20033;-84
2021/09/05 04:54:44;;;;;;;3.47;2.30;;;;;;;;;;5049144;28;20037;-84
2021/09/05 04:57:10;;;;;;;4.88;3.05;;;;;;;;;;5049394;28;20021;-84
2021/09/05 04:59:35;;;;;;;7.28;3.03;;;;;;;;;;5050939;28;20384;-84
2021/09/05 05:02:00;;;;;;;6.40;2.90;;;;;;;;;;5049214;28;20124;-84
2021/09/05 05:04:25;;;;;;;4.97;2.20;;;;;;;;;;5051669;28;20293;-84
2021/09/05 05:06:50;;;;;;;4.57;2.23;;;;;;;;;;5052741;28;20255;-84
2021/09/05 05:09:16;;;;;;;6.60;2.22;;;;;;;;;;5052779;28;20068;-84
2021/09/05 05:11:42;;;;;;;2.80;2.35;;;;;;;;;;5054141;28;20028;-84
2021/09/05 05:14:07;;;;;;;2.80;2.05;;;;;;;;;;5054166;28;20131;-84
2021/09/05 05:16:32;;;;;;;5.38;2.28;;;;;;;;;;5053985;28;20079;-84
2021/09/05 05:18:58;;;;;;;5.15;2.40;;;;;;;;;;5052680;28;20442;-84
2021/09/05 05:21:26;;;;;;;4.60;2.33;;;;;;;;;;5053029;28;20600;-84
2021/09/05 05:23:52;;;;;;;3.88;2.40;;;;;;;;;;5055868;28;20027;-84
2021/09/05 05:26:17;;;;;;;7.57;2.30;;;;;;;;;;5054154;28;20024;-84
2021/09/05 05:28:42;;;;;;;6.88;3.00;;;;;;;;;;5055095;28;20032;-84
2021/09/05 05:31:07;;;;;;;4.28;2.58;;;;;;;;;;5053036;28;20049;-84
2021/09/05 05:33:33;;;;;;;4.30;2.57;;;;;;;;;;5054098;28;20029;-84
2021/09/05 05:35:58;;;;;;;4.85;2.25;;;;;;;;;;5053867;28;20029;-84
2021/09/05 05:38:23;;;;;;;3.97;2.27;;;;;;;;;;5052406;28;20102;-84
2021/09/05 05:40:49;;;;;;;6.07;2.15;;;;;;;;;;5053852;28;20793;-83
2021/09/05 05:43:14;;;;;;;9.00;2.03;;;;;;;;;;5053280;28;20424;-84
2021/09/05 05:45:39;;;;;;;5.03;2.60;;;;;;;;;;5052549;28;20021;-84
2021/09/05 05:48:04;;;;;;;4.03;2.53;;;;;;;;;;5055645;28;20277;-84
2021/09/05 05:50:30;;;;;;;3.55;2.15;;;;;;;;;;5055629;28;20263;-84
2021/09/05 05:52:55;;;;;;;6.93;2.45;;;;;;;;;;5053789;28;20025;-84
2021/09/05 05:55:20;;;;;;;4.20;2.00;;;;;;;;;;5052194;28;20723;-84
2021/09/05 05:57:46;;;;;;;3.30;1.90;;;;;;;;;;5053515;28;20267;-83
2021/09/05 06:00:11;;;;;;;4.00;1.80;;;;;;;;;;5053306;28;20028;-84
2021/09/05 06:02:36;;;;;;;4.28;1.88;;;;;;;;;;5053048;28;20103;-84
2021/09/05 06:05:02;;;;;;;6.50;2.40;;;;;;;;;;5052966;28;20103;-84
2021/09/05 06:07:27;;;;;;;5.10;1.83;;;;;;;;;;5051441;28;20094;-84
2021/09/05 06:09:52;;;;;;;4.93;1.98;;;;;;;;;;5051969;28;20027;-83
2021/09/05 06:12:18;;;;;;;4.28;2.05;;;;;;;;;;5053010;28;20028;-84
2021/09/05 06:14:43;;;;;;;9.23;2.25;;;;;;;;;;5053023;28;20055;-84
2021/09/05 06:17:08;;;;;;;3.63;2.10;;;;;;;;;;5052667;28;20414;-84
2021/09/05 06:19:33;;;;;;;4.47;2.40;;;;;;;;;;5052884;28;20104;-84
2021/09/05 06:21:59;;;;;;;5.07;1.90;;;;;;;;;;5052838;28;20334;-84
2021/09/05 06:24:24;;;;;;;5.00;1.87;;;;;;;;;;5051222;28;20263;-84
2021/09/05 06:26:49;;;;;;;6.00;2.50;;;;;;;;;;5052517;28;20263;-84
2021/09/05 06:29:14;;;;;;;3.53;2.08;;;;;;;;;;5051227;28;20267;-84
2021/09/05 06:31:40;;;;;;;3.13;2.23;;;;;;;;;;5051033;28;20027;-84
2021/09/05 06:34:06;;;;;;;3.50;2.00;;;;;;;;;;5052312;28;20281;-84
2021/09/05 06:36:31;;;;;;;2.13;1.77;;;;;;;;;;5050873;28;20024;-84
2021/09/05 06:38:56;;;;;;;3.15;2.10;;;;;;;;;;5051216;28;20120;-84
2021/09/05 06:41:21;;;;;;;3.30;2.15;;;;;;;;;;5052693;28;20770;-84
2021/09/05 06:43:47;;;;;;;4.07;1.77;;;;;;;;;;5051020;28;20028;-84
2021/09/05 06:46:13;;;;;;;5.70;2.10;;;;;;;;;;5052466;28;20039;-84
2021/09/05 06:48:38;;;;;;;5.88;1.85;;;;;;;;;;5052087;28;20271;-84
2021/09/05 06:51:03;;;;;;;4.38;1.90;;;;;;;;;;5050809;28;20470;-84
2021/09/05 06:53:28;;;;;;;5.30;1.87;;;;;;;;;;5050619;28;20029;-84
2021/09/05 06:55:54;;;;;;;4.03;1.73;;;;;;;;;;5050821;28;20024;-84
2021/09/05 06:58:19;;;;;;;4.75;2.33;;;;;;;;;;5051919;28;20723;-84
2021/09/05 07:00:44;;;;;;;3.17;1.53;;;;;;;;;;5052810;28;20024;-84
2021/09/05 07:03:09;;;;;;;4.97;2.23;;;;;;;;;;5052642;28;20735;-84
2021/09/05 07:05:34;;;;;;;4.32;1.70;;;;;;;;;;5051131;28;20256;-84
2021/09/05 07:08:00;;;;;;;4.30;1.88;;;;;;;;;;5052552;28;20101;-84
2021/09/05 07:10:25;;;;;;;5.45;1.95;;;;;;;;;;5052422;28;20472;-84
2021/09/05 07:12:50;;;;;;;2.33;1.60;;;;;;;;;;5050503;28;20071;-84
2021/09/05 07:15:16;;;;;;;4.20;1.83;;;;;;;;;;5050508;28;20517;-84
2021/09/05 07:17:41;;;;;;;4.38;1.80;;;;;;;;;;5051533;28;20052;-84
2021/09/05 07:20:06;;;;;;;2.38;1.80;;;;;;;;;;5051635;28;20031;-84
2021/09/05 07:22:33;;;;;;;3.47;2.33;;;;;;;;;;5051836;28;20130;-84
2021/09/05 07:24:58;;;;;;;7.25;2.22;;;;;;;;;;5050597;28;20025;-84
2021/09/05 07:27:23;;;;;;;5.30;2.00;;;;;;;;;;5050315;28;20021;-84
2021/09/05 07:29:48;;;;;;;7.95;2.00;;;;;;;;;;5051499;28;20024;-84
2021/09/05 07:32:14;;;;;;;4.55;1.85;;;;;;;;;;5051081;28;20393;-84
2021/09/05 07:34:39;;;;;;;4.72;1.90;;;;;;;;;;5051088;28;20070;-84
2021/09/05 07:37:04;;;;;;;6.65;2.22;;;;;;;;;;5049720;28;20132;-84
2021/09/05 07:39:29;;;;;;;7.50;2.07;;;;;;;;;;5050933;28;20123;-84
2021/09/05 07:41:55;;;;;;;2.30;1.60;;;;;;;;;;5049667;28;20818;-84
2021/09/05 07:44:20;;;;;;;4.70;2.33;;;;;;;;;;5050899;28;21152;-84
2021/09/05 07:46:45;;;;;;;3.37;2.13;;;;;;;;;;5049422;28;20024;-84
2021/09/05 07:49:10;;;;;;;4.53;2.13;;;;;;;;;;5050787;28;20035;-84
2021/09/05 07:51:36;;;;;;;5.80;2.23;;;;;;;;;;5050826;28;20263;-85
2021/09/05 07:54:01;;;;;;;5.18;2.30;;;;;;;;;;5048981;28;20247;-84
2021/09/05 07:56:26;;;;;;;6.18;2.20;;;;;;;;;;5050519;28;20476;-84
2021/09/05 07:58:51;;;;;;;3.53;2.10;;;;;;;;;;5050643;28;20016;-85
2021/09/05 08:01:16;;;;;;;3.17;2.10;;;;;;;;;;5050502;28;20103;-84
2021/09/05 08:03:42;;;;;;;3.70;2.05;;;;;;;;;;5050242;28;20334;-84
2021/09/05 08:06:07;;;;;;;5.20;2.97;;;;;;;;;;5049179;28;20503;-84
2021/09/05 08:08:35;;;;;;;5.55;2.45;;;;;;;;;;5050374;28;20034;-84
2021/09/05 08:11:00;;;;;;;6.82;2.40;;;;;;;;;;5051154;28;20032;-84
2021/09/05 08:13:25;;;;;;;7.33;2.13;;;;;;;;;;5049090;28;20028;-84
2021/09/05 08:15:51;;;;;;;3.20;1.90;;;;;;;;;;5049203;28;20259;-84
2021/09/05 08:18:16;;;;;;;4.20;2.53;;;;;;;;;;5048713;28;20136;-84
2021/09/05 08:20:41;;;;;;;4.60;2.33;;;;;;;;;;5049945;28;20021;-84
2021/09/05 08:23:06;;;;;;;11.63;3.20;;;;;;;;;;5050555;28;20612;-84
2021/09/05 08:25:31;;;;;;;4.27;2.13;;;;;;;;;;5050511;28;20340;-84
2021/09/05 08:27:56;;;;;;;5.05;2.40;;;;;;;;;;5050615;28;20024;-85
2021/09/05 08:30:22;;;;;;;2.73;2.00;;;;;;;;;;5048937;28;20116;-84
2021/09/05 08:32:47;;;;;;;7.80;2.40;;;;;;;;;;5048665;28;20020;-84
2021/09/05 08:35:12;;;;;;;3.53;2.43;;;;;;;;;;5050394;28;20032;-85
2021/09/05 08:37:38;;;;;;;7.60;2.25;;;;;;;;;;5048972;28;20252;-84
2021/09/05 08:40:05;;;;;;;4.53;2.33;;;;;;;;;;5056259;28;20029;-84
2021/09/05 08:42:32;;;;;;;8.05;2.60;;;;;;;;;;5056619;28;20025;-84
2021/09/05 08:44:58;;;;;;;5.10;2.30;;;;;;;;;;5055243;28;20117;-84
2021/09/05 08:47:23;;;;;;;7.77;2.40;;;;;;;;;;5055268;28;20060;-85
2021/09/05 08:49:50;;;;;;;4.83;2.30;;;;;;;;;;5055376;28;20263;-84
2021/09/05 08:52:16;;;;;;;6.75;3.55;;;;;;;;;;5056619;28;20303;-84
2021/09/05 08:54:41;;;;;;;6.72;2.55;;;;;;;;;;5056684;28;20056;-84
2021/09/05 08:57:06;;;;;;;4.37;2.50;;;;;;;;;;5057056;28;20025;-84
2021/09/05 08:59:31;;;;;;;4.63;2.38;;;;;;;;;;5055298;28;20259;-84
2021/09/05 09:01:59;;;;;;;6.70;2.53;;;;;;;;;;5055412;28;20028;-84
2021/09/05 09:04:25;;;;;;;4.63;2.85;;;;;;;;;;5056772;28;20020;-84
2021/09/05 09:06:50;;;;;;;5.57;2.40;;;;;;;;;;5057356;28;20116;-83
2021/09/05 09:09:16;;;;;;;5.00;2.10;;;;;;;;;;5059800;28;20051;-82
2021/09/05 09:11:47;;;;;;;3.67;1.85;;;;;;;;;;5060674;28;20029;-83
2021/09/05 09:14:12;;;;;;;4.45;2.60;;;;;;;;;;5057635;28;20025;-82
2021/09/05 09:16:37;;;;;;;4.27;2.77;;;;;;;;;;5055937;28;20055;-83
2021/09/05 09:19:03;;;;;;;4.53;2.80;;;;;;;;;;5058429;28;20025;-82
2021/09/05 09:21:36;;;;;;;3.63;2.17;;;;;;;;;;5057152;28;20268;-82
2021/09/05 09:24:07;;;;;;;6.82;2.67;;;;;;;;;;5056228;28;20029;-82
2021/09/05 09:26:32;;;;;;;6.88;2.42;;;;;;;;;;5056629;28;20037;-83
2021/09/05 09:28:59;;;;;;;4.70;2.90;;;;;;;;;;5056240;28;20139;-82
2021/09/05 09:31:25;;;;;;;5.83;2.87;;;;;;;;;;5059537;28;20063;-83
2021/09/05 09:33:52;;;;;;;5.30;2.58;;;;;;;;;;5058047;28;20757;-84
2021/09/05 09:36:19;;;;;;;4.95;2.50;;;;;;;;;;5059085;28;20033;-83
2021/09/05 09:38:51;;;;;;;5.15;2.75;;;;;;;;;;5057664;28;20495;-84
2021/09/05 09:41:16;;;;;;;6.88;2.40;;;;;;;;;;5054984;28;20459;-84
2021/09/05 09:43:51;;;;;;;4.53;2.25;;;;;;;;;;5057754;28;20100;-83
2021/09/05 09:46:17;;;;;;;6.25;2.20;;;;;;;;;;5057858;28;20029;-83
2021/09/05 09:48:46;;;;;;;5.75;2.60;;;;;;;;;;5057454;28;20732;-83
2021/09/05 09:51:12;;;;;;;8.15;3.33;;;;;;;;;;5052963;28;20016;-82
2021/09/05 09:53:41;;;;;;;4.47;2.92;;;;;;;;;;5052236;28;20025;-82
2021/09/05 09:56:07;;;;;;;6.32;2.90;;;;;;;;;;5056739;28;20037;-82
2021/09/05 09:58:33;;;;;;;4.57;2.25;;;;;;;;;;5059164;28;20017;-83
2021/09/05 10:00:59;;;;;;;4.90;2.38;;;;;;;;;;5059285;28;20036;-83
2021/09/05 10:03:25;;;;;;;4.65;2.63;;;;;;;;;;5057270;28;20032;-83
2021/09/05 10:05:52;;;;;;;7.57;2.78;;;;;;;;;;5059558;28;20028;-83
2021/09/05 10:08:18;;;;;;;6.53;2.97;;;;;;;;;;5055597;28;20032;-83
2021/09/05 10:10:45;;;;;;;8.60;3.00;;;;;;;;;;5055063;28;20040;-83
2021/09/05 10:13:10;;;;;;;8.98;3.15;;;;;;;;;;5040366;28;20124;-83
2021/09/05 10:15:35;;;;;;;4.72;2.60;;;;;;;;;;5031622;28;20094;-84
2021/09/05 10:18:01;;;;;;;7.03;2.95;;;;;;;;;;5033802;28;20714;-85
2021/09/05 10:20:26;;;;;;;4.25;2.63;;;;;;;;;;5032615;28;20456;-84
2021/09/05 10:22:52;;;;;;;5.55;2.83;;;;;;;;;;5046340;28;20514;-84
2021/09/05 10:25:17;;;;;;;5.30;3.10;;;;;;;;;;5033289;28;20104;-84
2021/09/05 10:27:50;;;;;;;7.72;2.90;;;;;;;;;;5037357;28;20098;-84
2021/09/05 10:30:16;;;;;;;5.28;2.67;;;;;;;;;;5049951;28;20395;-85
2021/09/05 10:32:55;;;;;;;3.85;2.45;;;;;;;;;;5038332;28;20026;-85
2021/09/05 10:35:26;;;;;;;6.05;2.65;;;;;;;;;;5031980;28;20024;-84
2021/09/05 10:38:10;;;;;;;6.97;2.40;;;;;;;;;;5049579;28;20033;-85
2021/09/05 10:40:39;;;;;;;4.97;2.67;;;;;;;;;;5038993;28;20093;-85
2021/09/05 10:43:04;;;;;;;7.43;2.75;;;;;;;;;;5031237;28;20162;-85
2021/09/05 10:45:30;;;;;;;6.93;2.87;;;;;;;;;;5029684;28;20124;-85
2021/09/05 10:47:55;;;;;;;4.80;2.30;;;;;;;;;;5031789;28;20456;-85
2021/09/05 10:50:30;;;;;;;7.18;2.35;;;;;;;;;;5039800;28;20024;-83
2021/09/05 10:52:55;;;;;;;6.20;2.50;;;;;;;;;;5038044;28;20503;-84
2021/09/05 10:55:20;;;;;;;4.40;2.20;;;;;;;;;;5035570;28;20025;-83
2021/09/05 10:57:46;;;;;;;4.68;2.42;;;;;;;;;;5054663;28;20259;-83
2021/09/05 11:00:11;;;;;;;5.20;3.40;;;;;;;;;;5042532;28;20017;-83
2021/09/05 11:03:05;;;;;;;4.93;1.90;;;;;;;;;;5042511;28;20021;-83
2021/09/05 11:05:30;;;;;;;5.03;2.10;;;;;;;;;;5030660;28;20013;-83
2021/09/05 11:08:15;;;;;;;4.50;2.50;;;;;;;;;;5029742;28;20036;-83
2021/09/05 11:10:47;;;;;;;4.40;2.08;;;;;;;;;;5030359;28;20256;-84
2021/09/05 11:13:32;;;;;;;3.90;2.28;;;;;;;;;;5039954;28;20035;-83
2021/09/05 11:16:12;;;;;;;4.75;2.20;;;;;;;;;;5036225;28;20035;-82
2021/09/05 11:18:38;;;;;;;5.03;2.20;;;;;;;;;;5036508;28;20052;-82
2021/09/05 11:21:03;;;;;;;2.78;1.70;;;;;;;;;;5044616;28;20028;-82
2021/09/05 11:23:34;;;;;;;7.13;2.17;;;;;;;;;;5044545;28;20044;-81
2021/09/05 11:26:06;;;;;;;4.53;1.92;;;;;;;;;;5035892;28;20028;-81
2021/09/05 11:28:32;;;;;;;6.00;2.50;;;;;;;;;;5046871;28;20536;-82
2021/09/05 11:30:59;;;;;;;3.10;2.00;;;;;;;;;;5032239;28;20031;-82
2021/09/05 11:33:26;;;;;;;3.10;1.80;;;;;;;;;;5046245;28;20029;-82
2021/09/05 11:35:52;;;;;;;5.72;2.58;;;;;;;;;;5035726;28;20563;-82
2021/09/05 11:38:17;;;;;;;6.25;2.28;;;;;;;;;;5048336;28;20045;-81
2021/09/05 11:40:50;;;;;;;5.72;2.15;;;;;;;;;;5046476;28;20067;-82
2021/09/05 11:43:31;;;;;;;5.70;2.13;;;;;;;;;;5031858;28;20418;-82
2021/09/05 11:45:57;;;;;;;2.33;2.00;;;;;;;;;;5040102;28;20476;-81
2021/09/05 11:48:25;;;;;;;8.65;2.13;;;;;;;;;;5040919;28;20033;-82
2021/09/05 11:50:51;;;;;;;3.92;1.90;;;;;;;;;;5035750;28;20029;-82
2021/09/05 11:53:22;;;;;;;2.20;2.00;;;;;;;;;;5046041;28;20041;-83
2021/09/05 11:55:52;;;;;;;5.22;2.22;;;;;;;;;;5050949;28;20251;-83
2021/09/05 11:58:17;;;;;;;2.22;1.88;;;;;;;;;;5040147;28;20021;-82
2021/09/05 12:00:42;;;;;;;3.07;1.80;;;;;;;;;;5043789;28;20028;-83
2021/09/05 12:03:08;;;;;;;4.57;2.57;;;;;;;;;;5035261;28;20108;-83
2021/09/05 12:05:34;;;;;;;4.05;1.70;;;;;;;;;;5046479;28;20358;-82
2021/09/05 12:08:00;;;;;;;6.13;2.35;;;;;;;;;;5036878;28;20028;-83
2021/09/05 12:10:26;;;;;;;4.22;2.47;;;;;;;;;;5038722;28;20021;-82
2021/09/05 12:13:01;;;;;;;6.03;2.17;;;;;;;;;;5028222;28;20053;-82
2021/09/05 12:15:29;;;;;;;2.90;1.60;;;;;;;;;;5030812;28;20123;-82
2021/09/05 12:17:54;;;;;;;3.33;1.70;;;;;;;;;;5042331;28;20055;-83
2021/09/05 12:20:21;;;;;;;3.07;1.80;;;;;;;;;;5037784;28;20388;-82
2021/09/05 12:22:51;;;;;;;3.13;2.08;;;;;;;;;;5033310;28;20329;-82
2021/09/05 12:25:31;;;;;;;3.53;1.88;;;;;;;;;;5044356;28;20033;-81
2021/09/05 12:27:58;;;;;;;3.10;1.67;;;;;;;;;;5032596;28;20082;-82
2021/09/05 12:30:26;;;;;;;4.30;2.08;;;;;;;;;;5035553;28;20099;-82
2021/09/05 12:33:11;;;;;;;3.13;1.90;;;;;;;;;;5041538;28;20048;-82
2021/09/05 12:35:37;;;;;;;5.88;2.13;;;;;;;;;;5013914;28;20017;-82
2021/09/05 12:38:10;;;;;;;3.15;1.98;;;;;;;;;;5039449;28;20758;-82
2021/09/05 12:40:39;;;;;;;7.15;2.47;;;;;;;;;;5039080;28;20021;-82
2021/09/05 12:43:05;;;;;;;3.70;1.65;;;;;;;;;;5030706;28;20030;-81
2021/09/05 12:45:30;;;;;;;2.22;1.67;;;;;;;;;;5042243;28;20014;-81
2021/09/05 12:48:09;;;;;;;3.78;2.10;;;;;;;;;;5033795;28;20040;-82
2021/09/05 12:50:34;;;;;;;3.60;2.00;;;;;;;;;;5032804;28;20630;-81
2021/09/05 12:53:06;;;;;;;4.07;1.60;;;;;;;;;;5042011;28;20136;-82
2021/09/05 12:55:32;;;;;;;4.25;2.30;;;;;;;;;;5014155;28;20151;-81
2021/09/05 12:57:57;;;;;;;4.63;2.00;;;;;;;;;;5040425;28;20529;-82
2021/09/05 13:00:22;;;;;;;3.67;2.30;;;;;;;;;;5036897;28;20025;-82
2021/09/05 13:02:47;;;;;;;5.27;2.00;;;;;;;;;;5045217;28;20020;-81
2021/09/05 13:05:12;;;;;;;2.80;1.53;;;;;;;;;;5028477;28;20395;-81
2021/09/05 13:07:37;;;;;;;3.03;2.00;;;;;;;;;;5043010;28;20481;-82
2021/09/05 13:10:03;;;;;;;3.60;2.10;;;;;;;;;;5043195;28;20029;-82
2021/09/05 13:12:28;;;;;;;4.60;2.15;;;;;;;;;;5040875;28;20021;-81
2021/09/05 13:14:53;;;;;;;5.00;2.58;;;;;;;;;;5037270;28;20109;-82
2021/09/05 13:17:18;;;;;;;6.97;1.93;;;;;;;;;;5047479;28;20060;-83
2021/09/05 13:19:45;;;;;;;3.75;2.15;;;;;;;;;;5013524;28;20029;-83
2021/09/05 13:22:11;;;;;;;6.50;2.78;;;;;;;;;;5031682;28;20033;-84
2021/09/05 13:24:36;;;;;;;3.78;1.85;;;;;;;;;;5032885;28;20025;-84
2021/09/05 13:27:01;;;;;;;3.43;2.37;;;;;;;;;;5034290;28;20025;-84
2021/09/05 13:29:26;;;;;;;9.37;2.50;;;;;;;;;;5051389;28;20025;-83
2021/09/05 13:31:52;;;;;;;4.07;3.00;;;;;;;;;;5040486;28;20259;-83
2021/09/05 13:34:17;;;;;;;4.78;2.40;;;;;;;;;;5045258;28;20021;-83
2021/09/05 13:36:42;;;;;;;3.20;2.20;;;;;;;;;;5048598;28;20463;-83
2021/09/05 13:39:08;;;;;;;4.20;2.40;;;;;;;;;;5035367;28;20256;-82
2021/09/05 13:41:33;;;;;;;5.43;1.93;;;;;;;;;;5049418;28;20090;-83
2021/09/05 13:43:58;;;;;;;5.60;2.55;;;;;;;;;;5039305;28;20274;-82
2021/09/05 13:46:23;;;;;;;4.07;2.20;;;;;;;;;;5040860;28;20106;-82
2021/09/05 13:48:48;;;;;;;2.77;1.93;;;;;;;;;;5046171;28;20025;-82
2021/09/05 13:51:13;;;;;;;3.83;2.30;;;;;;;;;;5035437;28;20048;-82
2021/09/05 13:53:39;;;;;;;4.73;2.43;;;;;;;;;;5036333;28;20033;-82
2021/09/05 13:56:04;;;;;;;4.63;2.35;;;;;;;;;;5044163;28;20259;-82
2021/09/05 13:58:29;;;;;;;4.57;2.28;;;;;;;;;;5041450;28;20020;-82
2021/09/05 14:00:55;;;;;;;4.60;2.40;;;;;;;;;;5036430;28;20049;-81
2021/09/05 14:03:20;;;;;;;6.57;2.37;;;;;;;;;;5047966;28;20735;-82
2021/09/05 14:05:45;;;;;;;6.20;2.70;;;;;;;;;;5033874;28;20036;-83
2021/09/05 14:08:10;;;;;;;4.03;2.10;;;;;;;;;;5030406;28;20342;-82
2021/09/05 14:10:35;;;;;;;4.95;2.28;;;;;;;;;;5029425;28;20740;-83
2021/09/05 14:13:01;;;;;;;4.50;2.40;;;;;;;;;;5038979;28;20029;-83
2021/09/05 14:15:26;;;;;;;3.80;2.40;;;;;;;;;;5033718;28;20095;-82
2021/09/05 14:17:51;;;;;;;4.13;2.57;;;;;;;;;;5050889;28;20045;-83
2021/09/05 14:20:16;;;;;;;8.97;3.03;;;;;;;;;;5052417;28;20071;-82
2021/09/05 14:22:41;;;;;;;3.03;2.47;;;;;;;;;;5038343;28;20064;-83
2021/09/05 14:25:07;;;;;;;4.25;2.60;;;;;;;;;;5047416;28;20021;-83
2021/09/05 14:27:40;;;;;;;5.85;2.13;;;;;;;;;;5035677;28;20430;-83
2021/09/05 14:30:15;;;;;;;3.63;2.10;;;;;;;;;;5040238;28;20031;-83
2021/09/05 14:33:00;;;;;;;5.30;2.40;;;;;;;;;;5042091;28;20025;-82
2021/09/05 14:51:23;;;;;;;3.57;2.77;;;;;;;;;;5034842;28;20026;-83
2021/09/05 14:56:26;;;;;;;7.40;2.92;;;;;;;;;;5039600;28;20776;-83